createdAt,value
2022-12-20T00:01:56.731Z,31.57
2022-12-20T00:04:25.446Z,33.30
2022-12-20T00:06:55.466Z,33.03
2022-12-20T00:09:25.423Z,32.37
2022-12-20T00:11:53.969Z,33.40
2022-12-20T00:14:22.512Z,32.90
2022-12-20T00:16:50.820Z,33.97
2022-12-20T00:19:19.158Z,32.93
2022-12-20T00:21:47.532Z,34.70
2022-12-20T00:24:23.957Z,31.27
2022-12-20T00:26:54.515Z,34.20
2022-12-20T00:29:22.871Z,35.10
2022-12-20T00:31:51.371Z,34.23
2022-12-20T00:34:21.105Z,34.00
2022-12-20T00:36:49.608Z,32.50
2022-12-20T00:39:19.534Z,33.10
2022-12-20T00:41:47.975Z,34.83
2022-12-20T00:44:16.375Z,34.57
2022-12-20T00:46:44.898Z,35.00
2022-12-20T00:49:13.351Z,34.03
2022-12-20T00:51:41.821Z,32.67
2022-12-20T00:54:10.498Z,34.20
2022-12-20T00:56:40.662Z,33.53
2022-12-20T00:59:09.063Z,34.60
2022-12-20T01:01:37.567Z,34.67
2022-12-20T01:04:06.289Z,34.53
2022-12-20T01:06:35.982Z,30.40
2022-12-20T01:09:05.017Z,34.80
2022-12-20T01:11:35.454Z,33.97
2022-12-20T01:14:07.883Z,33.60
2022-12-20T01:16:39.050Z,34.47
2022-12-20T01:19:09.985Z,33.47
2022-12-20T01:21:39.986Z,35.30
2022-12-20T01:24:08.710Z,33.83
2022-12-20T01:26:37.022Z,33.77
2022-12-20T01:29:06.842Z,35.50
2022-12-20T01:31:35.436Z,32.70
2022-12-20T01:34:05.443Z,35.47
2022-12-20T01:36:35.635Z,33.87
2022-12-20T01:39:06.447Z,35.97
2022-12-20T01:41:36.882Z,34.70
2022-12-20T01:44:08.604Z,31.27
2022-12-20T01:46:37.353Z,33.43
2022-12-20T01:49:10.852Z,35.83
2022-12-20T01:51:43.378Z,34.97
2022-12-20T01:54:16.030Z,33.90
2022-12-20T01:56:47.012Z,35.50
2022-12-20T01:59:17.069Z,35.63
2022-12-20T02:01:47.496Z,35.33
2022-12-20T02:04:16.177Z,33.97
2022-12-20T02:06:45.441Z,37.00
2022-12-20T02:09:14.352Z,34.23
2022-12-20T02:12:07.618Z,34.90
2022-12-20T02:14:51.500Z,34.97
2022-12-20T02:17:32.308Z,35.00
2022-12-20T02:20:24.240Z,33.87
2022-12-20T02:23:09.472Z,32.43
2022-12-20T02:25:46.578Z,32.67
2022-12-20T02:28:32.519Z,32.97
2022-12-20T02:31:06.365Z,32.37
2022-12-20T02:33:34.908Z,33.80
2022-12-20T02:36:04.781Z,35.60
2022-12-20T02:38:35.456Z,34.10
2022-12-20T02:41:08.692Z,34.33
2022-12-20T02:43:57.813Z,34.07
2022-12-20T02:46:28.591Z,34.27
2022-12-20T02:49:01.129Z,34.17
2022-12-20T02:51:31.446Z,36.60
2022-12-20T02:54:01.486Z,33.77
2022-12-20T02:56:36.664Z,32.33
2022-12-20T02:59:10.649Z,33.77
2022-12-20T03:01:46.773Z,34.20
2022-12-20T03:04:16.965Z,33.40
2022-12-20T03:07:01.281Z,32.53
2022-12-20T03:09:31.271Z,33.20
2022-12-20T03:11:59.823Z,35.77
2022-12-20T03:14:28.509Z,32.80
2022-12-20T03:17:01.224Z,34.57
2022-12-20T03:19:29.625Z,33.03
2022-12-20T03:21:59.410Z,34.37
2022-12-20T03:24:29.080Z,35.07
2022-12-20T03:26:57.464Z,33.90
2022-12-20T03:29:27.243Z,34.43
2022-12-20T03:31:55.669Z,31.63
2022-12-20T03:34:25.614Z,34.20
2022-12-20T03:36:54.153Z,34.07
2022-12-20T03:39:22.613Z,33.67
2022-12-20T03:41:52.660Z,34.17
2022-12-20T03:44:21.180Z,32.63
2022-12-20T03:46:50.883Z,31.17
2022-12-20T03:49:19.505Z,31.60
2022-12-20T03:51:53.090Z,33.87
2022-12-20T03:54:21.793Z,34.10
2022-12-20T03:57:22.235Z,32.70
2022-12-20T03:59:54.344Z,32.53
2022-12-20T04:02:23.986Z,33.80
2022-12-20T04:04:54.173Z,32.13
2022-12-20T04:07:25.132Z,34.57
2022-12-20T04:09:53.748Z,33.87
2022-12-20T04:12:22.083Z,35.70
2022-12-20T04:14:50.574Z,34.23
2022-12-20T04:17:19.046Z,35.40
2022-12-20T04:19:49.755Z,34.60
2022-12-20T04:22:19.436Z,35.77
2022-12-20T04:24:56.322Z,34.90
2022-12-20T04:27:32.482Z,35.10
2022-12-20T04:30:02.211Z,33.77
2022-12-20T04:32:31.373Z,35.17
2022-12-20T04:35:02.279Z,34.50
2022-12-20T04:37:32.508Z,34.77
2022-12-20T04:40:02.993Z,34.53
2022-12-20T04:42:46.135Z,34.10
2022-12-20T04:45:16.673Z,34.23
2022-12-20T04:47:45.810Z,33.07
2022-12-20T04:50:19.631Z,32.60
2022-12-20T04:53:06.097Z,32.03
2022-12-20T04:55:40.572Z,31.90
2022-12-20T04:58:09.219Z,31.07
2022-12-20T05:00:41.008Z,31.13
2022-12-20T05:03:23.534Z,30.80
2022-12-20T05:05:52.707Z,33.53
2022-12-20T05:08:22.129Z,34.07
2022-12-20T05:10:54.371Z,32.30
2022-12-20T05:13:23.029Z,34.03
2022-12-20T05:15:53.554Z,33.77
2022-12-20T05:18:27.071Z,32.37
2022-12-20T05:21:19.600Z,34.40
2022-12-20T05:24:07.854Z,34.07
2022-12-20T05:27:06.805Z,35.67
2022-12-20T05:29:35.304Z,33.53
2022-12-20T05:32:03.734Z,37.47
2022-12-20T05:34:34.181Z,37.07
2022-12-20T05:37:02.677Z,36.13
2022-12-20T05:39:34.072Z,37.10
2022-12-20T05:42:08.524Z,38.00
2022-12-20T05:44:37.592Z,40.23
2022-12-20T05:47:06.247Z,38.40
2022-12-20T05:49:37.194Z,38.70
2022-12-20T05:52:09.346Z,39.20
2022-12-20T05:54:39.321Z,37.00
2022-12-20T05:57:14.682Z,39.30
2022-12-20T05:59:43.914Z,39.43
2022-12-20T06:02:18.617Z,41.13
2022-12-20T06:05:08.914Z,41.30
2022-12-20T06:07:37.676Z,38.47
2022-12-20T06:10:08.005Z,38.17
2022-12-20T06:12:51.378Z,39.60
2022-12-20T06:15:20.614Z,39.60
2022-12-20T06:17:51.839Z,38.70
2022-12-20T06:20:20.379Z,41.43
2022-12-20T06:22:50.838Z,42.03
2022-12-20T06:25:19.506Z,39.80
2022-12-20T06:27:48.526Z,39.90
2022-12-20T06:30:20.069Z,40.57
2022-12-20T06:33:07.545Z,38.80
2022-12-20T06:35:36.006Z,39.40
2022-12-20T06:38:04.298Z,40.07
2022-12-20T06:40:36.864Z,40.63
2022-12-20T06:43:05.501Z,40.40
2022-12-20T06:45:41.306Z,41.27
2022-12-20T06:48:11.934Z,38.57
2022-12-20T06:50:41.049Z,39.93
2022-12-20T06:53:10.220Z,41.63
2022-12-20T06:55:40.387Z,38.47
2022-12-20T06:58:08.874Z,39.37
2022-12-20T07:00:40.718Z,41.10
2022-12-20T07:03:09.265Z,41.57
2022-12-20T07:05:37.729Z,39.93
2022-12-20T07:08:07.020Z,39.40
2022-12-20T07:10:36.617Z,39.37
2022-12-20T07:13:05.280Z,39.13
2022-12-20T07:15:33.795Z,41.60
2022-12-20T07:18:03.686Z,42.10
2022-12-20T07:20:32.672Z,46.73
2022-12-20T07:23:01.251Z,42.77
2022-12-20T07:25:29.724Z,44.97
2022-12-20T07:27:58.495Z,43.10
2022-12-20T07:30:26.900Z,44.47
2022-12-20T07:32:55.458Z,45.33
2022-12-20T07:35:25.307Z,44.60
2022-12-20T07:37:54.449Z,45.10
2022-12-20T07:40:22.901Z,43.63
2022-12-20T07:42:51.317Z,45.10
2022-12-20T07:45:20.386Z,43.70
2022-12-20T07:47:48.926Z,44.20
2022-12-20T07:50:17.575Z,44.37
2022-12-20T07:52:50.054Z,45.87
2022-12-20T07:55:19.582Z,44.17
2022-12-20T07:57:52.617Z,43.60
2022-12-20T08:00:21.773Z,45.70
2022-12-20T08:02:56.571Z,44.30
2022-12-20T08:05:26.142Z,46.13
2022-12-20T08:07:59.909Z,46.03
2022-12-20T08:10:29.328Z,46.47
2022-12-20T08:12:59.032Z,45.17
2022-12-20T08:15:29.178Z,47.00
2022-12-20T08:17:57.835Z,42.80
2022-12-20T08:20:26.418Z,45.93
2022-12-20T08:22:56.461Z,47.20
2022-12-20T08:25:25.493Z,48.10
2022-12-20T08:27:54.050Z,49.83
2022-12-20T08:30:22.688Z,48.60
2022-12-20T08:32:50.993Z,50.97
2022-12-20T08:35:19.572Z,50.63
2022-12-20T08:37:48.410Z,52.43
2022-12-20T08:40:19.114Z,52.53
2022-12-20T08:42:47.762Z,52.23
2022-12-20T08:45:16.170Z,48.60
2022-12-20T08:47:44.545Z,50.10
2022-12-20T08:50:13.756Z,50.57
2022-12-20T08:52:42.230Z,51.37
2022-12-20T08:55:12.910Z,51.60
2022-12-20T08:57:42.995Z,54.07
2022-12-20T09:00:12.749Z,51.53
2022-12-20T09:02:41.698Z,52.07
2022-12-20T09:05:11.227Z,50.20
2022-12-20T09:07:39.609Z,50.37
2022-12-20T09:10:09.573Z,51.00
2022-12-20T09:12:39.151Z,50.67
2022-12-20T09:15:10.702Z,50.67
2022-12-20T09:17:39.236Z,54.73
2022-12-20T09:20:08.926Z,52.13
2022-12-20T09:22:37.323Z,53.73
2022-12-20T09:25:07.220Z,51.30
2022-12-20T09:27:35.639Z,53.87
2022-12-20T09:30:04.154Z,51.93
2022-12-20T09:32:33.929Z,53.43
2022-12-20T09:35:02.261Z,53.57
2022-12-20T09:37:32.302Z,53.80
2022-12-20T09:40:00.670Z,54.60
2022-12-20T09:42:30.828Z,52.37
2022-12-20T09:45:04.535Z,51.60
2022-12-20T09:47:37.198Z,55.00
2022-12-20T09:50:07.698Z,55.67
2022-12-20T09:53:06.463Z,55.40
2022-12-20T09:55:40.506Z,54.77
2022-12-20T09:58:29.574Z,53.67
2022-12-20T10:00:58.732Z,56.30
2022-12-20T10:03:32.656Z,58.30
2022-12-20T10:06:06.061Z,56.90
2022-12-20T10:08:47.900Z,56.97
2022-12-20T10:11:50.402Z,57.87
2022-12-20T10:14:38.566Z,56.93
2022-12-20T10:17:13.117Z,59.73
2022-12-20T10:20:03.378Z,56.17
2022-12-20T10:22:39.416Z,54.27
2022-12-20T10:25:18.264Z,55.77
2022-12-20T10:27:48.997Z,54.37
2022-12-20T10:30:20.150Z,54.40
2022-12-20T10:32:50.771Z,55.37
2022-12-20T10:35:27.075Z,57.37
2022-12-20T10:38:09.363Z,54.30
2022-12-20T10:41:19.563Z,58.00
2022-12-20T10:43:29.403Z,57.80
2022-12-20T10:46:01.824Z,57.43
2022-12-20T10:48:33.397Z,57.47
2022-12-20T10:51:16.578Z,55.50
2022-12-20T10:53:53.872Z,56.67
2022-12-20T10:56:25.001Z,54.00
2022-12-20T10:58:58.642Z,55.87
2022-12-20T11:01:30.707Z,58.00
2022-12-20T11:04:01.810Z,54.47
2022-12-20T11:06:43.606Z,55.20
2022-12-20T11:09:28.624Z,57.00
2022-12-20T11:12:03.829Z,59.03
2022-12-20T11:14:39.306Z,56.60
2022-12-20T11:17:24.244Z,55.00
2022-12-20T11:20:13.683Z,55.37
2022-12-20T11:22:53.250Z,57.67
2022-12-20T11:25:35.216Z,58.50
2022-12-20T11:28:24.186Z,57.10
2022-12-20T11:31:03.148Z,60.53
2022-12-20T11:33:55.176Z,58.37
2022-12-20T11:36:34.340Z,55.03
2022-12-20T11:39:12.617Z,57.13
2022-12-20T11:41:51.690Z,59.67
2022-12-20T11:44:28.958Z,56.90
2022-12-20T11:47:15.264Z,59.23
2022-12-20T11:50:04.731Z,57.43
2022-12-20T11:52:39.496Z,58.50
2022-12-20T11:55:21.398Z,58.07
2022-12-20T12:00:54.993Z,61.63
2022-12-20T12:03:31.543Z,55.37
2022-12-20T12:06:04.715Z,56.20
2022-12-20T12:08:41.346Z,58.20
2022-12-20T12:11:55.643Z,59.50
2022-12-20T12:14:08.265Z,58.70
2022-12-20T12:16:41.877Z,61.37
2022-12-20T12:19:12.062Z,61.90
2022-12-20T12:21:44.357Z,61.30
2022-12-20T12:24:21.357Z,60.73
2022-12-20T12:26:51.352Z,60.20
2022-12-20T12:29:22.105Z,59.43
2022-12-20T12:31:56.143Z,59.33
2022-12-20T12:34:37.546Z,56.60
2022-12-20T12:37:44.985Z,57.20
2022-12-20T12:40:50.606Z,55.50
2022-12-20T12:43:46.793Z,55.90
2022-12-20T12:46:19.828Z,55.23
2022-12-20T12:48:56.439Z,54.63
2022-12-20T12:51:29.547Z,56.57
2022-12-20T12:54:06.860Z,52.70
2022-12-20T12:56:44.675Z,55.60
2022-12-20T12:59:50.538Z,56.47
2022-12-20T13:02:52.568Z,57.03
2022-12-20T13:05:35.769Z,54.33
2022-12-20T13:08:04.738Z,57.30
2022-12-20T13:11:01.615Z,55.43
2022-12-20T13:13:30.542Z,54.60
2022-12-20T13:16:13.614Z,56.83
2022-12-20T13:19:02.235Z,59.90
2022-12-20T13:21:40.523Z,56.97
2022-12-20T13:25:03.849Z,59.70
2022-12-20T13:27:39.227Z,57.90
2022-12-20T13:30:27.703Z,59.23
2022-12-20T13:33:15.452Z,59.27
2022-12-20T13:36:05.102Z,59.07
2022-12-20T13:39:01.822Z,58.33
2022-12-20T13:41:36.997Z,60.33
2022-12-20T13:44:37.051Z,59.70
2022-12-20T13:47:18.273Z,62.97
2022-12-20T13:49:47.480Z,58.90
2022-12-20T13:52:28.710Z,65.10
2022-12-20T13:55:00.691Z,62.90
2022-12-20T13:57:33.038Z,64.50
2022-12-20T14:00:07.838Z,63.60
2022-12-20T14:02:42.232Z,63.00
2022-12-20T14:05:17.891Z,65.00
2022-12-20T14:07:52.156Z,64.87
2022-12-20T14:10:23.811Z,67.27
2022-12-20T14:12:53.169Z,68.30
2022-12-20T14:15:28.023Z,66.50
2022-12-20T14:17:56.838Z,71.17
2022-12-20T14:20:31.363Z,69.13
2022-12-20T14:23:06.351Z,66.53
2022-12-20T14:25:43.284Z,66.87
2022-12-20T14:28:26.770Z,72.17
2022-12-20T14:30:56.942Z,70.77
2022-12-20T14:33:31.336Z,69.73
2022-12-20T14:36:08.330Z,73.27
2022-12-20T14:38:38.393Z,71.50
2022-12-20T14:41:28.676Z,69.27
2022-12-20T14:43:58.245Z,67.50
2022-12-20T14:46:26.800Z,70.50
2022-12-20T14:49:17.367Z,72.33
2022-12-20T14:51:46.073Z,70.90
2022-12-20T14:54:47.728Z,72.87
2022-12-20T14:57:21.237Z,70.40
2022-12-20T15:00:01.530Z,71.90
2022-12-20T15:02:40.206Z,72.80
2022-12-20T15:05:10.994Z,71.93
2022-12-20T15:07:42.391Z,76.03
2022-12-20T15:10:13.504Z,74.90
2022-12-20T15:12:42.736Z,70.13
2022-12-20T15:15:28.774Z,71.23
2022-12-20T15:17:59.728Z,73.43
2022-12-20T15:20:28.858Z,71.60
2022-12-20T15:22:57.359Z,76.10
2022-12-20T15:25:27.385Z,73.27
2022-12-20T15:27:56.008Z,77.63
2022-12-20T15:30:24.530Z,73.20
2022-12-20T15:32:55.945Z,75.00
2022-12-20T15:35:26.009Z,70.10
2022-12-20T15:37:54.379Z,70.00
2022-12-20T15:40:23.182Z,71.13
2022-12-20T15:42:53.168Z,72.93
2022-12-20T15:45:22.906Z,73.67
2022-12-20T15:47:51.285Z,72.40
2022-12-20T15:50:20.068Z,68.63
2022-12-20T15:52:48.697Z,69.17
2022-12-20T15:55:17.347Z,69.73
2022-12-20T15:57:46.066Z,69.60
2022-12-20T16:00:17.172Z,68.10
2022-12-20T16:02:46.203Z,63.93
2022-12-20T16:05:14.870Z,66.60
2022-12-20T16:07:43.327Z,66.27
2022-12-20T16:10:15.425Z,65.67
2022-12-20T16:12:43.938Z,67.67
2022-12-20T16:15:22.127Z,64.97
2022-12-20T16:17:50.571Z,67.00
2022-12-20T16:20:19.463Z,65.10
2022-12-20T16:22:48.013Z,60.93
2022-12-20T16:25:27.089Z,61.27
2022-12-20T16:27:55.569Z,62.93
2022-12-20T16:30:25.855Z,60.47
2022-12-20T16:32:54.844Z,58.73
2022-12-20T16:35:27.557Z,58.47
2022-12-20T16:37:57.146Z,60.77
2022-12-20T16:40:27.294Z,62.30
2022-12-20T16:42:58.707Z,60.63
2022-12-20T16:45:30.781Z,58.07
2022-12-20T16:48:00.046Z,55.80
2022-12-20T16:50:29.050Z,60.67
2022-12-20T16:52:57.591Z,57.93
2022-12-20T16:55:28.326Z,59.73
2022-12-20T16:57:57.112Z,57.67
2022-12-20T17:00:28.497Z,58.80
2022-12-20T17:02:58.917Z,55.27
2022-12-20T17:05:30.091Z,56.97
2022-12-20T17:07:59.186Z,55.50
2022-12-20T17:10:30.614Z,60.83
2022-12-20T17:12:59.058Z,61.67
2022-12-20T17:15:31.854Z,58.50
2022-12-20T17:18:00.235Z,58.03
2022-12-20T17:20:35.000Z,62.37
2022-12-20T17:23:05.284Z,62.50
2022-12-20T17:25:36.942Z,65.60
2022-12-20T17:28:06.286Z,61.43
2022-12-20T17:30:36.084Z,65.03
2022-12-20T17:33:04.566Z,69.33
2022-12-20T17:35:34.098Z,66.67
2022-12-20T17:38:02.861Z,69.77
2022-12-20T17:40:31.420Z,70.57
2022-12-20T17:42:59.937Z,64.77
2022-12-20T17:45:31.572Z,68.03
2022-12-20T17:48:01.342Z,70.97
2022-12-20T17:50:29.860Z,80.47
2022-12-20T17:52:58.445Z,78.47
2022-12-20T17:55:29.123Z,78.63
2022-12-20T17:57:57.600Z,70.33
2022-12-20T18:00:36.359Z,72.70
2022-12-20T18:03:30.294Z,72.20
2022-12-20T18:06:05.805Z,73.20
2022-12-20T18:08:36.259Z,71.27
2022-12-20T18:11:05.158Z,65.67
2022-12-20T18:13:33.532Z,68.67
2022-12-20T18:16:07.309Z,70.87
2022-12-20T18:18:37.773Z,68.07
2022-12-20T18:21:08.634Z,69.07
2022-12-20T18:23:38.139Z,64.57
2022-12-20T18:26:09.248Z,70.43
2022-12-20T18:28:38.070Z,69.10
2022-12-20T18:31:10.110Z,68.87
2022-12-20T18:33:42.990Z,70.40
2022-12-20T18:36:16.091Z,69.60
2022-12-20T18:38:46.858Z,68.90
2022-12-20T18:41:17.386Z,70.67
2022-12-20T18:43:46.161Z,66.53
2022-12-20T18:46:16.081Z,71.67
2022-12-20T18:48:46.437Z,71.10
2022-12-20T18:51:16.844Z,69.37
2022-12-20T18:53:47.349Z,71.37
2022-12-20T18:56:18.363Z,70.93
2022-12-20T18:58:48.326Z,69.53
2022-12-20T19:01:18.821Z,68.50
2022-12-20T19:03:49.200Z,68.27
2022-12-20T19:06:18.092Z,71.60
2022-12-20T19:08:46.476Z,72.10
2022-12-20T19:11:17.147Z,69.43
2022-12-20T19:13:46.403Z,67.53
2022-12-20T19:16:17.258Z,84.03
2022-12-20T19:18:45.996Z,73.27
2022-12-20T19:21:17.586Z,67.57
2022-12-20T19:23:48.570Z,66.57
2022-12-20T19:26:18.579Z,64.30
2022-12-20T19:28:47.995Z,62.40
2022-12-20T19:31:22.051Z,66.27
2022-12-20T19:33:53.975Z,64.47
2022-12-20T19:36:26.341Z,64.37
2022-12-20T19:38:56.731Z,65.70
2022-12-20T19:41:26.429Z,64.97
2022-12-20T19:43:55.829Z,65.40
2022-12-20T19:46:29.217Z,68.70
2022-12-20T19:48:59.606Z,64.00
2022-12-20T19:51:30.060Z,61.70
2022-12-20T19:54:00.090Z,69.80
2022-12-20T19:56:30.270Z,67.97
2022-12-20T19:58:58.903Z,64.47
2022-12-20T20:01:28.275Z,61.20
2022-12-20T20:03:58.721Z,65.93
2022-12-20T20:06:30.053Z,64.07
2022-12-20T20:09:00.002Z,64.93
2022-12-20T20:11:31.344Z,64.63
2022-12-20T20:14:00.591Z,65.57
2022-12-20T20:16:29.202Z,67.43
2022-12-20T20:18:58.337Z,67.17
2022-12-20T20:21:26.746Z,66.83
2022-12-20T20:23:56.827Z,67.30
2022-12-20T20:26:26.783Z,66.90
2022-12-20T20:28:55.652Z,69.50
2022-12-20T20:31:24.355Z,66.37
2022-12-20T20:33:52.693Z,77.57
2022-12-20T20:36:23.455Z,79.33
2022-12-20T20:38:52.912Z,73.73
2022-12-20T20:41:22.868Z,67.00
2022-12-20T20:43:51.703Z,64.37
2022-12-20T20:46:20.641Z,68.57
2022-12-20T20:48:49.216Z,67.17
2022-12-20T20:51:17.888Z,64.03
2022-12-20T20:53:46.453Z,72.80
2022-12-20T20:56:15.477Z,68.60
2022-12-20T20:58:45.271Z,67.97
2022-12-20T21:01:14.033Z,68.83
2022-12-20T21:03:43.090Z,68.73
2022-12-20T21:09:01.362Z,63.97
2022-12-20T21:11:30.143Z,64.63
2022-12-20T21:14:00.048Z,75.60
2022-12-20T21:16:28.647Z,70.33
2022-12-20T21:18:59.518Z,72.80
2022-12-20T21:21:28.321Z,70.57
2022-12-20T21:23:56.935Z,67.90
2022-12-20T21:26:26.250Z,69.80
2022-12-20T21:28:59.494Z,72.47
2022-12-20T21:31:28.439Z,82.47
2022-12-20T21:33:57.683Z,74.90
2022-12-20T21:36:26.379Z,70.27
2022-12-20T21:38:56.497Z,71.07
2022-12-20T21:41:26.533Z,66.57
2022-12-20T21:43:57.774Z,70.20
2022-12-20T21:46:32.004Z,71.07
2022-12-20T21:49:00.948Z,71.23
2022-12-20T21:51:30.702Z,69.03
2022-12-20T21:54:00.685Z,69.63
2022-12-20T21:56:30.726Z,71.13
2022-12-20T21:58:59.359Z,73.80
2022-12-20T22:01:30.245Z,69.53
2022-12-20T22:04:00.993Z,68.00
2022-12-20T22:06:29.528Z,68.07
2022-12-20T22:08:58.828Z,69.00
2022-12-20T22:11:27.898Z,67.37
2022-12-20T22:13:57.122Z,68.10
2022-12-20T22:16:29.205Z,72.50
2022-12-20T22:19:00.236Z,68.97
2022-12-20T22:21:30.271Z,69.53
2022-12-20T22:23:59.619Z,71.90
2022-12-20T22:26:29.734Z,71.17
2022-12-20T22:29:00.033Z,69.23
2022-12-20T22:31:29.191Z,67.20
2022-12-20T22:34:00.188Z,68.67
2022-12-20T22:36:29.480Z,67.27
2022-12-20T22:38:58.548Z,71.13
2022-12-20T22:41:30.159Z,66.67
2022-12-20T22:43:59.723Z,64.80
2022-12-20T22:46:30.160Z,68.23
2022-12-20T22:49:01.488Z,65.40
2022-12-20T22:51:33.219Z,67.37
2022-12-20T22:54:01.902Z,68.00
2022-12-20T22:56:30.391Z,66.40
2022-12-20T22:58:58.750Z,68.87
2022-12-20T23:01:27.641Z,67.63
2022-12-20T23:03:56.438Z,65.53
2022-12-20T23:06:26.265Z,66.90
2022-12-20T23:08:54.736Z,67.37
2022-12-20T23:11:42.112Z,65.23
2022-12-20T23:14:31.048Z,66.77
2022-12-20T23:17:00.180Z,67.73
2022-12-20T23:19:49.331Z,68.03
2022-12-20T23:22:37.190Z,66.43
2022-12-20T23:25:07.478Z,68.40
2022-12-20T23:27:36.144Z,68.37
2022-12-20T23:30:04.819Z,66.47
2022-12-20T23:32:33.276Z,66.50
2022-12-20T23:35:08.320Z,66.27
2022-12-20T23:37:42.591Z,64.50
2022-12-20T23:40:12.024Z,64.60
2022-12-20T23:42:40.510Z,66.60
2022-12-20T23:45:10.563Z,65.50
2022-12-20T23:47:39.037Z,63.77
2022-12-20T23:50:08.745Z,63.67
2022-12-20T23:52:37.134Z,63.27
2022-12-20T23:55:07.743Z,63.73
2022-12-20T23:57:36.056Z,65.17
